Terminal Aerodrome Forecast
Issued by NWS

Home | Current Version | Previous Version | Text Only | Print | Product List | Glossary On
Versions: 1 2 3 4 5 6 7 8 9 10 11 12 13
000
FTUS46 KSGX 291100
TAFCRQ
TAF
KCRQ 291128Z 2912/3012 VRB04KT P6SM SCT020
     FM292100 26007KT P6SM SCT025
     FM300100 VRB04KT P6SM BKN020=

USA.gov is the U.S. government's official web portal to all federal, state and local government web resources and services.